EDT,Max TemperatureF,Mean TemperatureF,Min TemperatureF,Max Dew PointF,MeanDew PointF,Min DewpointF,Max Humidity, Mean Humidity, Min Humidity, Max Sea Level PressureIn, Mean Sea Level PressureIn, Min Sea Level PressureIn, Max VisibilityMiles, Mean VisibilityMiles, Min VisibilityMiles, Max Wind SpeedMPH, Mean Wind SpeedMPH, Max Gust SpeedMPH,PrecipitationIn, CloudCover, Events, WindDirDegrees
2013-3-1,30,27,24,27,23,19,92,81,69,30.06,29.97,29.88,10,9,4,17,11,22,T,8,Snow,342
2013-3-2,29,26,23,23,21,19,96,89,81,30.04,29.99,29.95,10,4,1,17,11,22,0.08,8,Snow,321
2013-3-3,25,21,16,20,17,12,92,76,60,30.07,30.00,29.95,10,6,1,14,7,17,0.01,7,Snow,293
2013-3-4,35,24,13,22,18,11,96,76,56,30.17,30.12,30.08,10,10,10,9,4,13,0.00,0,,275
2013-3-5,39,31,23,28,21,17,81,65,48,30.10,29.86,29.62,10,9,2,20,10,26,T,6,Snow,70
2013-3-6,42,35,27,31,29,26,100,85,70,30.21,29.89,29.61,10,6,1,14,9,18,0.19,7,Snow,348
2013-3-7,41,36,30,32,30,28,92,81,70,30.37,30.29,30.15,10,7,1,14,7,20,0.02,8,Snow,320
2013-3-8,42,32,22,30,26,21,96,78,59,30.48,30.42,30.35,10,10,6,13,6,18,0.00,2,,354
2013-3-9,53,38,23,31,27,23,92,67,41,30.42,30.28,30.09,10,10,8,15,8,18,0.00,1,,136
2013-3-10,67,56,45,38,33,27,58,45,32,30.09,29.99,29.86,10,10,10,25,12,30,0.00,2,,161
2013-3-11,59,48,37,48,42,34,93,65,37,29.86,29.72,29.56,10,9,2,31,17,39,0.62,8,Rain,199
2013-3-12,37,32,26,34,29,25,92,81,69,29.99,29.91,29.77,10,9,5,16,11,23,0.01,7,Snow,235
2013-3-13,31,27,22,28,23,16,92,81,69,30.23,30.04,29.90,10,5,0,20,11,28,0.03,7,Fog-Snow,260
2013-3-14,38,29,20,23,19,15,77,66,54,30.29,30.23,30.15,10,10,10,17,8,26,0.00,1,,263
2013-3-15,45,36,27,39,30,20,100,82,63,30.14,29.94,29.83,10,9,2,15,8,20,0.07,4,Rain,236
2013-3-16,40,35,29,39,34,27,100,96,92,30.03,29.81,29.63,10,3,0,18,7,23,T,8,Fog-Rain,13
2013-3-17,32,29,26,28,24,21,100,82,63,30.21,30.13,30.03,10,10,7,13,8,24,0.00,7,,2
2013-3-18,48,38,28,47,37,19,100,85,69,30.12,29.73,29.56,10,6,2,25,15,36,0.46,8,Rain,151
2013-3-19,36,30,24,32,22,15,89,71,53,30.00,29.83,29.72,10,9,4,29,16,38,T,7,Snow,243
2013-3-20,30,25,19,21,17,10,77,68,58,30.00,29.93,29.87,10,8,1,17,10,24,T,7,Snow,263
2013-3-21,29,22,15,20,15,9,80,71,62,29.97,29.91,29.86,10,7,2,17,10,21,T,7,Snow,264
2013-3-22,39,31,22,22,18,16,81,65,48,30.04,29.99,29.92,10,9,5,16,9,28,T,5,Snow,264
2013-3-23,42,32,22,26,22,18,88,70,51,30.08,30.05,30.01,10,10,9,13,6,16,0.00,0,,319
2013-3-24,35,31,26,23,21,20,81,69,56,29.99,29.76,29.47,10,10,10,23,12,28,T,4,,53
2013-3-25,34,32,29,31,30,25,100,89,78,29.86,29.58,29.38,10,3,0,17,10,22,0.45,8,Fog-Snow,3
2013-3-26,42,37,31,31,29,25,92,72,51,30.14,30.02,29.84,10,8,1,15,9,22,0.01,7,Snow,289
2013-3-27,41,36,31,30,28,24,100,77,54,30.23,30.17,30.09,10,9,2,18,11,25,T,7,Snow,270
2013-3-28,45,37,29,31,26,22,75,64,53,30.29,30.26,30.21,10,10,10,16,8,21,0.00,7,,277
2013-3-29,49,40,31,29,25,23,78,59,39,30.30,30.27,30.22,10,10,10,14,6,21,0.00,1,,269
2013-3-30,54,40,26,29,25,22,78,55,32,30.25,30.15,29.98,10,10,10,16,7,25,0.00,0,,182
2013-3-31,52,47,41,45,35,25,86,68,49,29.96,29.78,29.70,10,10,4,23,11,35,0.01,5,Rain,203